createdAt,value
2022-10-15T00:02:04.618Z,14.66
2022-10-15T00:04:32.270Z,14.58
2022-10-15T00:06:59.953Z,14.59
2022-10-15T00:09:27.546Z,14.61
2022-10-15T00:11:55.093Z,14.58
2022-10-15T00:14:22.583Z,14.54
2022-10-15T00:16:51.414Z,14.56
2022-10-15T00:19:18.871Z,14.63
2022-10-15T00:21:46.305Z,14.60
2022-10-15T00:24:13.762Z,14.71
2022-10-15T00:26:41.236Z,14.49
2022-10-15T00:29:09.032Z,14.49
2022-10-15T00:31:36.623Z,14.49
2022-10-15T00:34:05.415Z,14.41
2022-10-15T00:36:35.061Z,14.49
2022-10-15T00:39:03.185Z,14.51
2022-10-15T00:41:33.052Z,14.35
2022-10-15T00:44:01.850Z,14.44
2022-10-15T00:46:32.747Z,14.38
2022-10-15T00:49:04.751Z,14.47
2022-10-15T00:51:38.729Z,14.47
2022-10-15T00:54:06.974Z,14.48
2022-10-15T00:56:36.014Z,14.40
2022-10-15T00:59:05.656Z,14.36
2022-10-15T01:01:33.259Z,14.33
2022-10-15T01:04:03.496Z,14.38
2022-10-15T01:06:31.208Z,14.32
2022-10-15T01:09:01.034Z,14.47
2022-10-15T01:11:38.620Z,14.36
2022-10-15T01:14:19.850Z,14.40
2022-10-15T01:16:51.845Z,14.34
2022-10-15T01:19:32.800Z,14.27
2022-10-15T01:22:05.906Z,14.25
2022-10-15T01:25:04.345Z,14.24
2022-10-15T01:27:41.704Z,14.24
2022-10-15T01:30:26.492Z,14.33
2022-10-15T01:33:12.284Z,14.25
2022-10-15T01:35:48.990Z,14.22
2022-10-15T01:38:26.037Z,14.11
2022-10-15T01:40:58.399Z,14.12
2022-10-15T01:43:34.016Z,14.13
2022-10-15T01:46:07.409Z,14.04
2022-10-15T01:48:37.578Z,14.07
2022-10-15T01:51:07.703Z,14.11
2022-10-15T01:53:37.351Z,14.06
2022-10-15T01:56:08.863Z,14.06
2022-10-15T01:58:40.047Z,13.96
2022-10-15T02:01:09.001Z,13.96
2022-10-15T02:03:45.749Z,14.00
2022-10-15T02:06:20.498Z,14.10
2022-10-15T02:08:58.888Z,13.96
2022-10-15T02:11:26.460Z,14.11
2022-10-15T02:14:01.745Z,14.10
2022-10-15T02:16:38.171Z,14.13
2022-10-15T02:19:09.751Z,14.07
2022-10-15T02:21:42.826Z,13.98
2022-10-15T02:24:14.900Z,14.00
2022-10-15T02:26:44.528Z,13.98
2022-10-15T02:31:47.301Z,14.19
2022-10-15T02:34:20.747Z,14.18
2022-10-15T02:36:48.874Z,14.20
2022-10-15T02:39:21.094Z,14.20
2022-10-15T02:41:49.836Z,14.26
2022-10-15T02:44:17.457Z,14.17
2022-10-15T02:46:46.408Z,14.16
2022-10-15T02:49:13.872Z,14.17
2022-10-15T02:51:41.622Z,14.20
2022-10-15T02:54:09.273Z,14.16
2022-10-15T02:56:39.132Z,14.15
2022-10-15T02:59:07.105Z,14.12
2022-10-15T03:01:35.259Z,14.14
2022-10-15T03:04:04.080Z,14.20
2022-10-15T03:06:31.569Z,14.15
2022-10-15T03:08:59.395Z,14.19
2022-10-15T03:11:26.934Z,14.07
2022-10-15T03:13:54.471Z,14.16
2022-10-15T03:16:21.979Z,14.08
2022-10-15T03:18:49.588Z,14.09
2022-10-15T03:21:18.426Z,14.14
2022-10-15T03:23:46.231Z,14.01
2022-10-15T03:26:13.846Z,14.14
2022-10-15T03:28:41.379Z,14.10
2022-10-15T03:31:09.137Z,14.06
2022-10-15T03:33:36.596Z,14.00
2022-10-15T03:36:04.320Z,14.15
2022-10-15T03:38:33.130Z,14.11
2022-10-15T03:41:00.611Z,14.06
2022-10-15T03:43:28.092Z,14.08
2022-10-15T03:45:55.583Z,14.13
2022-10-15T03:48:23.276Z,14.12
2022-10-15T03:50:50.731Z,14.11
2022-10-15T03:53:18.149Z,14.06
2022-10-15T03:55:47.030Z,14.01
2022-10-15T03:58:14.482Z,14.09
2022-10-15T04:00:42.577Z,14.11
2022-10-15T04:03:10.124Z,14.13
2022-10-15T04:05:37.783Z,14.06
2022-10-15T04:08:06.112Z,13.97
2022-10-15T04:10:33.593Z,14.02
2022-10-15T04:13:02.390Z,14.04
2022-10-15T04:15:29.835Z,14.06
2022-10-15T04:17:57.371Z,14.15
2022-10-15T04:20:25.047Z,14.04
2022-10-15T04:22:52.567Z,14.05
2022-10-15T04:25:20.030Z,14.10
2022-10-15T04:27:47.493Z,14.12
2022-10-15T04:30:16.359Z,14.09
2022-10-15T04:32:43.920Z,14.09
2022-10-15T04:35:11.486Z,13.98
2022-10-15T04:37:38.938Z,13.99
2022-10-15T04:40:07.726Z,14.10
2022-10-15T04:42:35.194Z,14.02
2022-10-15T04:45:02.721Z,13.95
2022-10-15T04:47:31.507Z,14.00
2022-10-15T04:49:59.024Z,13.92
2022-10-15T04:52:26.486Z,14.01
2022-10-15T04:54:53.940Z,14.00
2022-10-15T04:57:21.583Z,13.95
2022-10-15T04:59:52.582Z,13.78
2022-10-15T05:02:22.870Z,13.79
2022-10-15T05:04:52.208Z,13.70
2022-10-15T05:07:19.700Z,13.78
2022-10-15T05:09:47.135Z,13.82
2022-10-15T05:12:14.603Z,13.78
2022-10-15T05:14:42.528Z,13.82
2022-10-15T05:17:10.036Z,13.75
2022-10-15T05:19:37.515Z,13.70
2022-10-15T05:22:06.306Z,13.69
2022-10-15T05:24:33.775Z,13.68
2022-10-15T05:27:03.043Z,13.69
2022-10-15T05:29:31.063Z,13.77
2022-10-15T05:31:58.534Z,13.83
2022-10-15T05:34:28.539Z,13.73
2022-10-15T05:36:56.008Z,13.70
2022-10-15T05:39:25.143Z,13.78
2022-10-15T05:41:53.467Z,13.81
2022-10-15T05:44:20.935Z,13.72
2022-10-15T05:46:48.718Z,13.78
2022-10-15T05:49:16.316Z,13.77
2022-10-15T05:51:43.856Z,13.70
2022-10-15T05:54:11.449Z,13.81
2022-10-15T05:56:40.223Z,13.85
2022-10-15T05:59:07.703Z,13.83
2022-10-15T06:01:35.234Z,13.92
2022-10-15T06:04:03.090Z,13.90
2022-10-15T06:06:30.581Z,13.99
2022-10-15T06:08:59.766Z,13.93
2022-10-15T06:11:27.271Z,14.06
2022-10-15T06:13:56.192Z,13.95
2022-10-15T06:16:24.302Z,13.98
2022-10-15T06:18:54.821Z,14.06
2022-10-15T06:21:22.626Z,14.07
2022-10-15T06:23:50.140Z,14.06
2022-10-15T06:26:17.716Z,14.10
2022-10-15T06:28:45.264Z,14.21
2022-10-15T06:31:14.250Z,14.17
2022-10-15T06:33:41.709Z,14.29
2022-10-15T06:36:13.519Z,14.36
2022-10-15T06:38:42.976Z,14.52
2022-10-15T06:41:10.872Z,14.45
2022-10-15T06:43:38.366Z,14.53
2022-10-15T06:46:07.266Z,14.47
2022-10-15T06:48:36.230Z,14.49
2022-10-15T06:51:04.855Z,14.59
2022-10-15T06:53:32.812Z,14.54
2022-10-15T06:56:02.284Z,14.65
2022-10-15T06:58:29.774Z,14.69
2022-10-15T07:01:01.641Z,14.68
2022-10-15T07:03:29.775Z,14.79
2022-10-15T07:06:02.437Z,14.70
2022-10-15T07:08:29.922Z,14.83
2022-10-15T07:10:57.367Z,14.68
2022-10-15T07:13:24.900Z,14.83
2022-10-15T07:15:55.809Z,14.81
2022-10-15T07:18:26.803Z,14.88
2022-10-15T07:20:54.331Z,14.94
2022-10-15T07:23:26.981Z,15.00
2022-10-15T07:25:55.454Z,14.98
2022-10-15T07:28:22.974Z,14.95
2022-10-15T07:30:50.461Z,15.04
2022-10-15T07:33:17.954Z,15.16
2022-10-15T07:35:45.439Z,15.25
2022-10-15T07:38:12.900Z,15.38
2022-10-15T07:40:42.003Z,15.58
2022-10-15T07:43:09.472Z,15.51
2022-10-15T07:45:36.935Z,15.67
2022-10-15T07:48:04.666Z,15.81
2022-10-15T07:50:35.423Z,15.82
2022-10-15T07:53:04.671Z,16.02
2022-10-15T07:55:32.124Z,16.11
2022-10-15T07:58:00.910Z,16.37
2022-10-15T08:00:28.437Z,16.39
2022-10-15T08:02:55.887Z,16.46
2022-10-15T08:05:23.408Z,16.64
2022-10-15T08:07:51.046Z,16.74
2022-10-15T08:10:18.744Z,16.55
2022-10-15T08:12:46.203Z,16.44
2022-10-15T08:15:15.078Z,16.42
2022-10-15T08:17:42.522Z,16.30
2022-10-15T08:20:10.846Z,16.31
2022-10-15T08:22:38.372Z,16.24
2022-10-15T08:25:06.505Z,16.38
2022-10-15T08:27:34.116Z,16.37
2022-10-15T08:30:01.938Z,16.51
2022-10-15T08:32:30.738Z,16.57
2022-10-15T08:34:58.195Z,16.47
2022-10-15T08:37:25.765Z,16.73
2022-10-15T08:39:53.238Z,16.80
2022-10-15T08:42:24.705Z,16.85
2022-10-15T08:44:57.208Z,16.79
2022-10-15T08:47:35.409Z,16.72
2022-10-15T08:50:11.954Z,16.52
2022-10-15T08:52:44.000Z,16.55
2022-10-15T08:55:13.862Z,16.59
2022-10-15T08:57:47.498Z,16.55
2022-10-15T09:00:20.380Z,16.50
2022-10-15T09:02:58.485Z,16.43
2022-10-15T09:05:32.998Z,16.51
2022-10-15T09:08:06.834Z,16.47
2022-10-15T09:10:42.704Z,16.31
2022-10-15T09:13:16.406Z,16.30
2022-10-15T09:15:49.441Z,16.41
2022-10-15T09:18:23.463Z,16.56
2022-10-15T09:20:51.496Z,16.80
2022-10-15T09:23:21.393Z,16.97
2022-10-15T09:25:56.128Z,17.08
2022-10-15T09:28:29.350Z,17.14
2022-10-15T09:30:59.650Z,17.30
2022-10-15T09:33:38.594Z,17.34
2022-10-15T09:36:18.127Z,17.45
2022-10-15T09:38:58.055Z,17.17
2022-10-15T09:41:36.866Z,17.09
2022-10-15T09:44:10.986Z,16.96
2022-10-15T09:46:44.805Z,16.97
2022-10-15T09:49:19.005Z,17.12
2022-10-15T09:51:49.972Z,17.23
2022-10-15T09:54:25.931Z,17.21
2022-10-15T09:56:56.530Z,17.23
2022-10-15T09:59:25.431Z,17.30
2022-10-15T10:02:01.674Z,17.43
2022-10-15T10:04:32.076Z,17.62
2022-10-15T10:07:02.500Z,17.71
2022-10-15T10:09:33.722Z,17.85
2022-10-15T10:12:03.387Z,17.97
2022-10-15T10:14:34.130Z,18.09
2022-10-15T10:17:09.264Z,18.19
2022-10-15T10:19:39.066Z,18.26
2022-10-15T10:22:14.712Z,18.14
2022-10-15T10:24:42.283Z,17.89
2022-10-15T10:27:20.444Z,17.95
2022-10-15T10:29:56.231Z,17.86
2022-10-15T10:32:29.005Z,17.75
2022-10-15T10:34:58.776Z,17.80
2022-10-15T10:37:27.480Z,17.81
2022-10-15T10:39:57.836Z,18.11
2022-10-15T10:42:31.713Z,18.12
2022-10-15T10:45:18.570Z,18.22
2022-10-15T10:47:46.508Z,18.28
2022-10-15T10:50:33.468Z,18.43
2022-10-15T10:53:21.828Z,18.42
2022-10-15T10:55:50.395Z,18.70
2022-10-15T10:58:23.539Z,18.67
2022-10-15T11:00:55.528Z,18.42
2022-10-15T11:03:32.654Z,18.40
2022-10-15T11:06:22.560Z,18.37
2022-10-15T11:09:02.362Z,18.34
2022-10-15T11:11:38.035Z,18.32
2022-10-15T11:14:18.111Z,18.41
2022-10-15T11:16:55.400Z,18.32
2022-10-15T11:19:59.764Z,18.34
2022-10-15T11:22:34.720Z,18.38
2022-10-15T11:25:15.669Z,18.50
2022-10-15T11:27:57.272Z,18.56
2022-10-15T11:30:36.579Z,18.39
2022-10-15T11:33:20.515Z,18.39
2022-10-15T11:35:56.057Z,18.24
2022-10-15T11:38:31.410Z,18.31
2022-10-15T11:41:20.859Z,18.35
2022-10-15T11:44:07.672Z,18.27
2022-10-15T11:46:46.485Z,18.24
2022-10-15T11:49:27.495Z,18.23
2022-10-15T11:52:12.288Z,18.21
2022-10-15T11:54:44.812Z,18.39
2022-10-15T11:57:15.148Z,18.45
2022-10-15T11:59:51.002Z,18.64
2022-10-15T12:02:23.247Z,18.60
2022-10-15T12:04:55.886Z,18.68
2022-10-15T12:07:25.344Z,19.00
2022-10-15T12:09:58.479Z,19.10
2022-10-15T12:12:35.274Z,19.18
2022-10-15T12:15:20.047Z,19.31
2022-10-15T12:17:52.725Z,19.31
2022-10-15T12:20:21.846Z,19.11
2022-10-15T12:22:57.931Z,19.01
2022-10-15T12:25:44.201Z,19.08
2022-10-15T12:28:18.082Z,18.95
2022-10-15T12:31:00.019Z,18.77
2022-10-15T12:33:34.406Z,18.68
2022-10-15T12:36:09.250Z,18.64
2022-10-15T12:38:39.884Z,18.53
2022-10-15T12:41:10.967Z,18.53
2022-10-15T12:43:43.734Z,18.46
2022-10-15T12:46:12.785Z,18.51
2022-10-15T12:48:42.615Z,18.59
2022-10-15T12:51:34.935Z,18.50
2022-10-15T12:54:02.497Z,18.59
2022-10-15T12:56:40.576Z,18.54
2022-10-15T12:59:29.918Z,18.53
2022-10-15T13:01:57.418Z,18.67
2022-10-15T13:04:25.975Z,18.97
2022-10-15T13:06:53.518Z,19.02
2022-10-15T13:09:29.146Z,19.14
2022-10-15T13:12:00.168Z,19.26
2022-10-15T13:14:38.564Z,19.44
2022-10-15T13:17:14.581Z,19.66
2022-10-15T13:19:49.599Z,19.82
2022-10-15T13:22:23.337Z,19.78
2022-10-15T13:24:51.332Z,20.03
2022-10-15T13:27:29.858Z,19.90
2022-10-15T13:30:00.488Z,19.71
2022-10-15T13:32:30.044Z,19.65
2022-10-15T13:34:58.419Z,19.54
2022-10-15T13:37:31.658Z,19.62
2022-10-15T13:40:03.138Z,19.53
2022-10-15T13:42:35.774Z,19.62
2022-10-15T13:45:05.927Z,19.66
2022-10-15T13:47:35.511Z,19.54
2022-10-15T13:50:19.337Z,19.52
2022-10-15T13:52:50.776Z,19.49
2022-10-15T13:55:21.795Z,19.41
2022-10-15T13:57:57.037Z,19.32
2022-10-15T14:00:30.385Z,19.24
2022-10-15T14:03:14.252Z,19.07
2022-10-15T14:05:41.930Z,18.95
2022-10-15T14:08:20.627Z,18.95
2022-10-15T14:10:49.362Z,18.75
2022-10-15T14:13:18.292Z,18.90
2022-10-15T14:15:51.289Z,18.89
2022-10-15T14:18:28.842Z,18.87
2022-10-15T14:20:56.435Z,18.76
2022-10-15T14:23:25.871Z,18.69
2022-10-15T14:25:56.183Z,18.75
2022-10-15T14:28:51.728Z,19.02
2022-10-15T14:31:37.813Z,19.04
2022-10-15T14:34:05.776Z,19.03
2022-10-15T14:36:43.292Z,19.20
2022-10-15T14:39:32.012Z,19.22
2022-10-15T14:42:01.173Z,19.11
2022-10-15T14:44:43.658Z,18.92
2022-10-15T14:47:19.568Z,18.91
2022-10-15T14:49:47.838Z,18.99
2022-10-15T14:52:20.296Z,19.06
2022-10-15T14:54:52.185Z,18.92
2022-10-15T14:57:26.305Z,18.92
2022-10-15T14:59:56.987Z,18.98
2022-10-15T15:02:28.080Z,19.01
2022-10-15T15:05:09.453Z,18.83
2022-10-15T15:07:40.457Z,18.77
2022-10-15T15:10:09.851Z,18.73
2022-10-15T15:12:40.211Z,18.72
2022-10-15T15:15:15.000Z,18.64
2022-10-15T15:17:43.258Z,18.62
2022-10-15T15:20:12.464Z,18.50
2022-10-15T15:22:41.750Z,18.42
2022-10-15T15:25:15.633Z,18.35
2022-10-15T15:27:43.187Z,18.22
2022-10-15T15:30:17.647Z,18.19
2022-10-15T15:32:45.472Z,18.06
2022-10-15T15:35:22.102Z,17.92
2022-10-15T15:37:49.670Z,17.79
2022-10-15T15:40:17.266Z,17.76
2022-10-15T15:42:45.926Z,17.67
2022-10-15T15:45:22.298Z,17.55
2022-10-15T15:47:50.574Z,17.47
2022-10-15T15:50:20.427Z,17.32
2022-10-15T15:52:48.375Z,17.22
2022-10-15T15:55:16.112Z,17.06
2022-10-15T15:57:45.268Z,17.06
2022-10-15T16:00:13.832Z,17.03
2022-10-15T16:02:42.998Z,16.94
2022-10-15T16:05:13.932Z,17.21
2022-10-15T16:07:41.386Z,17.10
2022-10-15T16:10:11.832Z,16.97
2022-10-15T16:12:39.489Z,17.04
2022-10-15T16:15:11.589Z,17.04
2022-10-15T16:17:44.018Z,16.89
2022-10-15T16:20:12.654Z,16.76
2022-10-15T16:22:40.432Z,16.77
2022-10-15T16:25:09.225Z,16.65
2022-10-15T16:27:36.702Z,16.58
2022-10-15T16:30:05.249Z,16.42
2022-10-15T16:32:32.736Z,16.34
2022-10-15T16:35:01.638Z,16.17
2022-10-15T16:37:29.114Z,16.10
2022-10-15T16:39:56.951Z,16.00
2022-10-15T16:42:24.416Z,16.00
2022-10-15T16:44:52.664Z,16.03
2022-10-15T16:47:21.315Z,16.11
2022-10-15T16:49:49.045Z,16.01
2022-10-15T16:52:17.882Z,15.97
2022-10-15T16:54:45.351Z,15.85
2022-10-15T16:57:12.814Z,15.73
2022-10-15T16:59:40.349Z,15.82
2022-10-15T17:02:07.942Z,15.87
2022-10-15T17:04:35.438Z,15.79
2022-10-15T17:07:03.192Z,15.77
2022-10-15T17:09:32.251Z,15.91
2022-10-15T17:12:00.049Z,15.96
2022-10-15T17:14:27.659Z,16.05
2022-10-15T17:16:55.114Z,15.98
2022-10-15T17:19:27.764Z,16.02
2022-10-15T17:21:58.171Z,15.95
2022-10-15T17:24:25.736Z,16.00
2022-10-15T17:26:54.907Z,15.96
2022-10-15T17:29:27.770Z,15.92
2022-10-15T17:31:58.309Z,15.71
2022-10-15T17:34:27.822Z,15.60
2022-10-15T17:36:56.276Z,15.72
2022-10-15T17:39:24.589Z,15.79
2022-10-15T17:41:53.824Z,15.73
2022-10-15T17:44:21.611Z,15.72
2022-10-15T17:49:21.490Z,15.55
2022-10-15T17:51:48.952Z,15.41
2022-10-15T17:54:16.658Z,15.45
2022-10-15T17:56:44.183Z,15.48
2022-10-15T17:59:13.951Z,15.42
2022-10-15T18:01:57.673Z,15.47
2022-10-15T18:04:25.656Z,15.62
2022-10-15T18:06:53.112Z,15.38
2022-10-15T18:09:20.770Z,15.25
2022-10-15T18:11:48.978Z,15.23
2022-10-15T18:14:17.928Z,15.12
2022-10-15T18:16:45.783Z,15.09
2022-10-15T18:19:14.122Z,15.04
2022-10-15T18:21:44.360Z,14.94
2022-10-15T18:24:16.080Z,14.93
2022-10-15T18:26:45.026Z,14.91
2022-10-15T18:29:12.488Z,14.89
2022-10-15T18:31:41.349Z,15.11
2022-10-15T18:34:08.826Z,15.09
2022-10-15T18:36:37.724Z,15.15
2022-10-15T18:39:05.221Z,15.21
2022-10-15T18:41:35.637Z,15.22
2022-10-15T18:44:05.795Z,14.99
2022-10-15T18:46:35.447Z,15.00
2022-10-15T18:49:04.515Z,14.85
2022-10-15T18:51:32.405Z,14.87
2022-10-15T18:54:00.403Z,14.66
2022-10-15T18:56:28.383Z,14.75
2022-10-15T18:58:56.643Z,14.64
2022-10-15T19:01:27.979Z,14.59
2022-10-15T19:03:55.729Z,14.49
2022-10-15T19:06:29.216Z,14.43
2022-10-15T19:08:58.259Z,14.32
2022-10-15T19:11:26.659Z,14.36
2022-10-15T19:13:56.750Z,14.50
2022-10-15T19:16:24.741Z,14.52
2022-10-15T19:18:52.308Z,14.61
2022-10-15T19:21:19.980Z,14.62
2022-10-15T19:23:48.809Z,14.62
2022-10-15T19:26:16.646Z,14.70
2022-10-15T19:28:44.388Z,14.55
2022-10-15T19:31:22.520Z,14.56
2022-10-15T19:33:50.005Z,14.55
2022-10-15T19:36:21.720Z,14.33
2022-10-15T19:38:50.746Z,14.22
2022-10-15T19:41:18.337Z,14.13
2022-10-15T19:43:45.807Z,14.08
2022-10-15T19:46:13.896Z,14.02
2022-10-15T19:48:41.330Z,14.01
2022-10-15T19:51:08.972Z,14.05
2022-10-15T19:53:37.055Z,13.98
2022-10-15T19:56:08.577Z,13.92
2022-10-15T19:58:36.748Z,13.90
2022-10-15T20:01:05.446Z,13.95
2022-10-15T20:03:33.876Z,13.96
2022-10-15T20:06:02.698Z,13.95
2022-10-15T20:08:31.444Z,13.72
2022-10-15T20:10:58.979Z,13.69
2022-10-15T20:13:27.770Z,13.67
2022-10-15T20:15:55.547Z,13.88
2022-10-15T20:18:23.299Z,13.83
2022-10-15T20:20:50.758Z,13.88
2022-10-15T20:23:18.884Z,13.91
2022-10-15T20:25:46.735Z,13.98
2022-10-15T20:28:16.182Z,13.97
2022-10-15T20:30:45.923Z,14.01
2022-10-15T20:33:14.092Z,13.90
2022-10-15T20:35:42.242Z,13.97
2022-10-15T20:38:09.768Z,13.94
2022-10-15T20:40:41.240Z,13.89
2022-10-15T20:43:08.770Z,13.80
2022-10-15T20:45:42.462Z,13.88
2022-10-15T20:48:17.691Z,13.94
2022-10-15T20:50:45.650Z,13.95
2022-10-15T20:53:13.347Z,14.02
2022-10-15T20:55:40.845Z,14.28
2022-10-15T20:58:08.464Z,14.18
2022-10-15T21:00:36.371Z,14.17
2022-10-15T21:03:03.802Z,14.24
2022-10-15T21:05:32.640Z,14.28
2022-10-15T21:08:00.911Z,14.27
2022-10-15T21:10:28.389Z,14.53
2022-10-15T21:12:55.986Z,14.53
2022-10-15T21:15:23.476Z,14.57
2022-10-15T21:17:50.949Z,14.71
2022-10-15T21:20:18.647Z,14.72
2022-10-15T21:22:47.455Z,14.74
2022-10-15T21:25:15.080Z,14.80
2022-10-15T21:27:42.795Z,14.83
2022-10-15T21:30:11.778Z,15.02
2022-10-15T21:32:39.242Z,15.00
2022-10-15T21:35:07.647Z,14.96
2022-10-15T21:37:35.901Z,14.98
2022-10-15T21:40:06.261Z,15.05
2022-10-15T21:42:33.789Z,14.96
2022-10-15T21:45:01.740Z,14.92
2022-10-15T21:47:29.583Z,14.95
2022-10-15T21:49:57.278Z,14.90
2022-10-15T21:52:24.757Z,14.93
2022-10-15T21:54:52.223Z,14.97
2022-10-15T21:57:21.006Z,14.93
2022-10-15T21:59:48.471Z,14.89
2022-10-15T22:02:16.073Z,14.89
2022-10-15T22:04:43.850Z,14.88
2022-10-15T22:07:11.315Z,14.90
2022-10-15T22:09:38.794Z,14.99
2022-10-15T22:12:06.626Z,14.89
2022-10-15T22:14:35.640Z,15.10
2022-10-15T22:17:03.141Z,15.01
2022-10-15T22:19:30.597Z,15.13
2022-10-15T22:21:58.061Z,14.97
2022-10-15T22:24:25.530Z,14.92
2022-10-15T22:26:54.111Z,14.93
2022-10-15T22:29:23.839Z,14.95
2022-10-15T22:31:53.750Z,14.96
2022-10-15T22:34:22.929Z,15.06
2022-10-15T22:36:50.989Z,15.05
2022-10-15T22:39:19.511Z,15.23
2022-10-15T22:41:48.696Z,15.09
2022-10-15T22:44:18.737Z,15.23
2022-10-15T22:46:49.049Z,15.07
2022-10-15T22:49:19.884Z,14.90
2022-10-15T22:51:47.371Z,14.86
2022-10-15T22:54:15.704Z,14.75
2022-10-15T22:56:43.499Z,14.70
2022-10-15T22:59:11.925Z,14.77
2022-10-15T23:01:39.675Z,14.72
2022-10-15T23:04:08.865Z,14.69
2022-10-15T23:06:38.254Z,14.79
2022-10-15T23:09:07.864Z,14.94
2022-10-15T23:11:37.483Z,14.84
2022-10-15T23:14:07.051Z,14.80
2022-10-15T23:16:37.340Z,14.79
2022-10-15T23:19:07.670Z,14.65
2022-10-15T23:21:38.881Z,14.54
2022-10-15T23:24:07.152Z,14.62
2022-10-15T23:26:35.421Z,14.65
2022-10-15T23:29:05.002Z,14.47
2022-10-15T23:31:34.697Z,14.34
2022-10-15T23:34:03.426Z,14.34
2022-10-15T23:36:32.234Z,14.45
2022-10-15T23:39:03.018Z,14.34
2022-10-15T23:41:31.052Z,14.34
2022-10-15T23:43:58.635Z,14.29
2022-10-15T23:46:26.368Z,14.27
2022-10-15T23:48:53.831Z,14.29
2022-10-15T23:51:23.166Z,14.28
2022-10-15T23:53:51.390Z,14.26
2022-10-15T23:56:20.784Z,14.20
2022-10-15T23:58:49.959Z,14.23
